Time;durP1;ratioP1;P1;durP2;ratioP2;P2;SDS_P1;SDS_P2;PMS_P1;PMS_P2;Temp;Humidity;BMP_temperature;BMP_pressure;BME280_temperature;BME280_humidity;BME280_pressure;Samples;Min_cycle;Max_cycle;Signal;HPM_P1;HPM_P2
2021/08/11 00:01:01;;;;;;;1.35;1.25;;;;;;;;;;4917709;29;20210;-84
2021/08/11 00:03:28;;;;;;;1.27;1.25;;;;;;;;;;4917971;29;20217;-85
2021/08/11 00:05:56;;;;;;;1.33;1.23;;;;;;;;;;4918013;29;20202;-84
2021/08/11 00:08:23;;;;;;;1.40;1.30;;;;;;;;;;4917963;29;20561;-85
2021/08/11 00:10:51;;;;;;;1.25;1.15;;;;;;;;;;4917385;29;20213;-84
2021/08/11 00:13:19;;;;;;;1.00;1.00;;;;;;;;;;4917312;29;20183;-85
2021/08/11 00:15:46;;;;;;;1.65;1.52;;;;;;;;;;4918108;29;20206;-85
2021/08/11 00:18:15;;;;;;;1.63;1.52;;;;;;;;;;4918108;29;20190;-84
2021/08/11 00:20:43;;;;;;;1.90;1.80;;;;;;;;;;4917926;29;20213;-85
2021/08/11 00:23:11;;;;;;;2.67;2.47;;;;;;;;;;4917637;29;20190;-84
2021/08/11 00:25:39;;;;;;;1.85;1.75;;;;;;;;;;4917672;29;20753;-84
2021/08/11 00:28:07;;;;;;;2.05;1.95;;;;;;;;;;4917414;29;20179;-84
2021/08/11 00:30:34;;;;;;;2.10;1.88;;;;;;;;;;4917745;29;20187;-85
2021/08/11 00:33:02;;;;;;;1.40;1.30;;;;;;;;;;4917912;29;20187;-84
2021/08/11 00:35:31;;;;;;;2.38;2.03;;;;;;;;;;4917212;29;20244;-84
2021/08/11 00:37:58;;;;;;;1.80;1.70;;;;;;;;;;4917334;29;20183;-85
2021/08/11 00:40:26;;;;;;;1.27;1.17;;;;;;;;;;4917405;29;20252;-84
2021/08/11 00:42:54;;;;;;;1.33;1.23;;;;;;;;;;4917452;29;20681;-85
2021/08/11 00:45:21;;;;;;;2.28;1.58;;;;;;;;;;4917469;29;20705;-84
2021/08/11 00:47:52;;;;;;;2.63;1.67;;;;;;;;;;4916372;29;20195;-84
2021/08/11 00:50:20;;;;;;;1.80;1.70;;;;;;;;;;4917003;29;20186;-85
2021/08/11 00:52:49;;;;;;;1.35;1.25;;;;;;;;;;4917184;29;20194;-84
2021/08/11 00:55:17;;;;;;;1.85;1.75;;;;;;;;;;4917039;29;20701;-84
2021/08/11 00:57:45;;;;;;;1.75;1.52;;;;;;;;;;4916779;29;20179;-84
2021/08/11 01:00:15;;;;;;;1.30;1.30;;;;;;;;;;4917016;29;20217;-84
2021/08/11 01:02:43;;;;;;;1.42;1.33;;;;;;;;;;4917158;29;20555;-85
2021/08/11 01:05:11;;;;;;;1.00;1.00;;;;;;;;;;4917507;29;20226;-84
2021/08/11 01:07:38;;;;;;;1.40;1.30;;;;;;;;;;4917474;29;20190;-84
2021/08/11 01:10:09;;;;;;;1.20;1.20;;;;;;;;;;4917333;29;20886;-85
2021/08/11 01:12:37;;;;;;;1.10;1.10;;;;;;;;;;4917327;29;20198;-84
2021/08/11 01:15:07;;;;;;;1.20;1.10;;;;;;;;;;4916886;29;20229;-84
2021/08/11 01:17:35;;;;;;;1.85;1.60;;;;;;;;;;4917091;29;20195;-85
2021/08/11 01:20:05;;;;;;;1.08;1.08;;;;;;;;;;4916819;29;20328;-84
2021/08/11 01:22:39;;;;;;;1.45;1.35;;;;;;;;;;4917244;29;20561;-84
2021/08/11 01:25:13;;;;;;;1.48;1.38;;;;;;;;;;4916013;29;20222;-84
2021/08/11 01:28:23;;;;;;;1.50;1.40;;;;;;;;;;4916868;29;20190;-84
2021/08/11 01:30:58;;;;;;;1.63;1.52;;;;;;;;;;4916824;29;20194;-85
2021/08/11 01:33:45;;;;;;;1.17;1.13;;;;;;;;;;4916586;29;20603;-85
2021/08/11 01:36:20;;;;;;;1.10;1.05;;;;;;;;;;4916977;29;20226;-85
2021/08/11 01:38:56;;;;;;;1.05;1.00;;;;;;;;;;4916939;29;20186;-84
2021/08/11 01:41:28;;;;;;;1.10;1.10;;;;;;;;;;4917051;29;20191;-83
2021/08/11 01:43:58;;;;;;;1.20;1.15;;;;;;;;;;4916714;29;20229;-85
2021/08/11 01:46:27;;;;;;;1.48;1.38;;;;;;;;;;4916920;29;20238;-85
2021/08/11 01:48:58;;;;;;;1.27;1.27;;;;;;;;;;4916415;29;20194;-84
2021/08/11 01:51:26;;;;;;;2.17;1.05;;;;;;;;;;4916778;29;20675;-84
2021/08/11 01:53:54;;;;;;;1.10;1.10;;;;;;;;;;4916872;29;20230;-85
2021/08/11 01:56:21;;;;;;;1.05;1.05;;;;;;;;;;4917027;29;20210;-85
2021/08/11 01:58:50;;;;;;;1.13;1.00;;;;;;;;;;4917135;29;20190;-85
2021/08/11 02:01:17;;;;;;;1.10;1.10;;;;;;;;;;4916998;29;20211;-85
2021/08/11 02:03:45;;;;;;;1.27;0.95;;;;;;;;;;4916374;29;20282;-85
2021/08/11 02:06:14;;;;;;;1.10;1.10;;;;;;;;;;4917162;29;20183;-85
2021/08/11 02:08:44;;;;;;;1.08;1.08;;;;;;;;;;4916787;29;20589;-84
2021/08/11 02:11:14;;;;;;;1.20;1.20;;;;;;;;;;4916871;29;20684;-84
2021/08/11 02:13:42;;;;;;;1.20;1.20;;;;;;;;;;4916658;29;20228;-85
2021/08/11 02:16:10;;;;;;;4.80;1.75;;;;;;;;;;4916820;29;20234;-84
2021/08/11 02:18:39;;;;;;;1.63;1.48;;;;;;;;;;4916630;29;20709;-85
2021/08/11 02:21:06;;;;;;;1.80;1.70;;;;;;;;;;4914849;29;20205;-85
2021/08/11 02:23:35;;;;;;;1.60;1.50;;;;;;;;;;4916828;29;20227;-84
2021/08/11 02:26:11;;;;;;;1.40;1.30;;;;;;;;;;4916620;29;20206;-84
2021/08/11 02:28:47;;;;;;;1.50;1.40;;;;;;;;;;4916939;29;20191;-84
2021/08/11 02:31:24;;;;;;;1.75;1.65;;;;;;;;;;4915689;29;20650;-84
2021/08/11 02:33:56;;;;;;;1.50;1.40;;;;;;;;;;4915386;29;20297;-85
2021/08/11 02:36:28;;;;;;;1.60;1.50;;;;;;;;;;4917546;29;20214;-84
2021/08/11 02:39:03;;;;;;;2.00;1.80;;;;;;;;;;4911468;29;20246;-84
2021/08/11 02:41:37;;;;;;;3.28;2.97;;;;;;;;;;4919606;29;20190;-84
2021/08/11 02:44:09;;;;;;;2.22;2.03;;;;;;;;;;4918290;29;20231;-85
2021/08/11 02:46:40;;;;;;;3.05;1.90;;;;;;;;;;4918631;29;20186;-84
2021/08/11 02:49:11;;;;;;;1.65;1.55;;;;;;;;;;4918565;29;20195;-83
2021/08/11 02:51:39;;;;;;;1.75;1.65;;;;;;;;;;4918393;29;20197;-84
2021/08/11 02:54:12;;;;;;;1.45;1.35;;;;;;;;;;4918109;29;20226;-84
2021/08/11 02:56:40;;;;;;;1.42;1.33;;;;;;;;;;4918301;29;20221;-84
2021/08/11 02:59:08;;;;;;;1.67;1.58;;;;;;;;;;4918439;29;20190;-84
2021/08/11 03:01:36;;;;;;;1.40;1.30;;;;;;;;;;4919121;29;20206;-84
2021/08/11 03:04:04;;;;;;;1.42;1.30;;;;;;;;;;4918605;29;20227;-84
2021/08/11 03:06:31;;;;;;;1.23;1.13;;;;;;;;;;4918598;29;20195;-84
2021/08/11 03:08:59;;;;;;;1.67;1.58;;;;;;;;;;4918946;29;20634;-84
2021/08/11 03:11:29;;;;;;;1.83;1.42;;;;;;;;;;4918895;29;20190;-85
2021/08/11 03:13:57;;;;;;;1.10;1.10;;;;;;;;;;4918886;29;20232;-84
2021/08/11 03:16:24;;;;;;;1.10;1.10;;;;;;;;;;4918801;29;20221;-84
2021/08/11 03:18:52;;;;;;;1.30;1.20;;;;;;;;;;4918800;29;20191;-83
2021/08/11 03:21:20;;;;;;;1.23;1.13;;;;;;;;;;4917660;29;20186;-84
2021/08/11 03:23:48;;;;;;;1.20;1.20;;;;;;;;;;4918655;29;20270;-84
2021/08/11 03:26:16;;;;;;;1.15;1.13;;;;;;;;;;4918311;29;20218;-83
2021/08/11 03:28:44;;;;;;;1.00;1.00;;;;;;;;;;4918568;29;20190;-84
2021/08/11 03:31:12;;;;;;;0.93;0.93;;;;;;;;;;4918429;29;20206;-84
2021/08/11 03:33:39;;;;;;;1.83;1.73;;;;;;;;;;4917730;29;20576;-84
2021/08/11 03:36:07;;;;;;;0.80;0.80;;;;;;;;;;4918409;29;20230;-83
2021/08/11 03:38:34;;;;;;;0.95;0.95;;;;;;;;;;4918471;29;20190;-84
2021/08/11 03:41:01;;;;;;;1.33;1.23;;;;;;;;;;4918355;29;20194;-85
2021/08/11 03:43:29;;;;;;;1.00;1.00;;;;;;;;;;4918506;29;20194;-84
2021/08/11 03:45:58;;;;;;;1.50;1.40;;;;;;;;;;4918214;29;20592;-84
2021/08/11 03:48:25;;;;;;;1.95;1.85;;;;;;;;;;4917148;29;20202;-83
2021/08/11 03:50:52;;;;;;;0.90;0.90;;;;;;;;;;4918126;29;20564;-84
2021/08/11 03:53:20;;;;;;;1.13;1.10;;;;;;;;;;4918143;29;20198;-83
2021/08/11 03:55:47;;;;;;;1.00;1.00;;;;;;;;;;4918115;29;20214;-84
2021/08/11 03:58:14;;;;;;;1.75;1.65;;;;;;;;;;4918407;29;20195;-83
2021/08/11 04:00:44;;;;;;;1.10;1.10;;;;;;;;;;4918437;29;20689;-83
2021/08/11 04:03:12;;;;;;;1.08;1.02;;;;;;;;;;4918930;29;20201;-83
2021/08/11 04:05:40;;;;;;;1.58;1.48;;;;;;;;;;4917915;29;20191;-83
2021/08/11 04:08:08;;;;;;;1.30;1.20;;;;;;;;;;4918155;29;20198;-83
2021/08/11 04:10:35;;;;;;;1.50;1.40;;;;;;;;;;4918027;29;20191;-84
2021/08/11 04:13:04;;;;;;;1.83;1.55;;;;;;;;;;4917805;29;20210;-85
2021/08/11 04:15:31;;;;;;;1.35;1.25;;;;;;;;;;4918095;29;20218;-85
2021/08/11 04:17:58;;;;;;;1.17;1.13;;;;;;;;;;4918048;29;20339;-86
2021/08/11 04:20:27;;;;;;;1.23;1.10;;;;;;;;;;4917973;29;20210;-85
2021/08/11 04:22:55;;;;;;;1.80;1.70;;;;;;;;;;4917629;29;20283;-86
2021/08/11 04:25:22;;;;;;;1.42;1.33;;;;;;;;;;4917931;29;20222;-84
2021/08/11 04:27:50;;;;;;;1.70;1.60;;;;;;;;;;4917790;29;20214;-84
2021/08/11 04:30:18;;;;;;;1.23;1.23;;;;;;;;;;4917508;29;20712;-85
2021/08/11 04:32:45;;;;;;;1.50;1.40;;;;;;;;;;4917331;29;20206;-85
2021/08/11 04:35:13;;;;;;;1.95;1.85;;;;;;;;;;4916871;29;20725;-84
2021/08/11 04:37:42;;;;;;;1.50;1.42;;;;;;;;;;4916679;29;20222;-85
2021/08/11 04:40:12;;;;;;;1.10;1.10;;;;;;;;;;4917365;29;20189;-85
2021/08/11 04:42:39;;;;;;;1.17;1.10;;;;;;;;;;4917695;29;20190;-85
2021/08/11 04:45:10;;;;;;;0.90;0.90;;;;;;;;;;4919231;29;20597;-85
2021/08/11 04:47:38;;;;;;;1.50;1.40;;;;;;;;;;4919627;29;20231;-85
2021/08/11 04:50:07;;;;;;;1.40;1.30;;;;;;;;;;4917363;29;20191;-85
2021/08/11 04:52:34;;;;;;;1.02;1.02;;;;;;;;;;4916984;29;20642;-85
2021/08/11 04:55:04;;;;;;;0.82;0.82;;;;;;;;;;4917136;29;20229;-85
2021/08/11 04:57:32;;;;;;;1.08;1.08;;;;;;;;;;4917186;29;20222;-84
2021/08/11 04:59:59;;;;;;;0.77;0.77;;;;;;;;;;4913404;29;20192;-85
2021/08/11 05:02:28;;;;;;;4.97;1.00;;;;;;;;;;4898462;29;20546;-85
2021/08/11 05:04:56;;;;;;;1.60;1.48;;;;;;;;;;4898031;29;20225;-86
2021/08/11 05:07:23;;;;;;;1.45;1.25;;;;;;;;;;4908757;29;20202;-85
2021/08/11 05:09:51;;;;;;;1.55;1.40;;;;;;;;;;4916373;29;20205;-85
2021/08/11 05:12:20;;;;;;;1.80;1.67;;;;;;;;;;4912109;29;20214;-85
2021/08/11 05:14:47;;;;;;;1.00;1.00;;;;;;;;;;4916395;29;20226;-85
2021/08/11 05:17:20;;;;;;;1.30;1.20;;;;;;;;;;4916840;29;20211;-85
2021/08/11 05:19:48;;;;;;;1.48;1.33;;;;;;;;;;4916421;29;20210;-84
2021/08/11 05:22:15;;;;;;;1.20;1.20;;;;;;;;;;4904002;29;20195;-84
2021/08/11 05:24:43;;;;;;;1.02;1.02;;;;;;;;;;4897390;29;20230;-84
2021/08/11 05:27:11;;;;;;;1.15;1.15;;;;;;;;;;4897570;29;20187;-84
2021/08/11 05:29:42;;;;;;;1.50;1.40;;;;;;;;;;4906705;29;20202;-84
2021/08/11 05:32:10;;;;;;;1.30;1.30;;;;;;;;;;4916063;29;20202;-84
2021/08/11 05:34:37;;;;;;;1.17;1.10;;;;;;;;;;4912376;29;20237;-85
2021/08/11 05:37:05;;;;;;;0.80;0.80;;;;;;;;;;4897402;29;20207;-86
2021/08/11 05:39:32;;;;;;;1.35;1.25;;;;;;;;;;4897125;29;20183;-85
2021/08/11 05:42:00;;;;;;;1.40;1.30;;;;;;;;;;4897501;29;20194;-85
2021/08/11 05:44:27;;;;;;;1.85;1.75;;;;;;;;;;4897083;29;20238;-85
2021/08/11 05:46:56;;;;;;;1.65;1.55;;;;;;;;;;4896745;29;20212;-85
2021/08/11 05:49:23;;;;;;;1.30;1.23;;;;;;;;;;4896814;29;20214;-85
2021/08/11 05:51:50;;;;;;;1.40;1.30;;;;;;;;;;4897091;29;20217;-85
2021/08/11 05:54:18;;;;;;;1.52;1.42;;;;;;;;;;4897194;29;20230;-85
2021/08/11 05:56:45;;;;;;;1.60;1.50;;;;;;;;;;4897371;29;20228;-85
2021/08/11 05:59:13;;;;;;;1.52;1.42;;;;;;;;;;4896960;29;20210;-86
2021/08/11 06:01:40;;;;;;;2.88;1.50;;;;;;;;;;4896892;29;20199;-86
2021/08/11 06:04:09;;;;;;;1.63;1.52;;;;;;;;;;4896815;29;20227;-86
2021/08/11 06:06:36;;;;;;;1.85;1.75;;;;;;;;;;4896734;29;20583;-85
2021/08/11 06:09:04;;;;;;;1.52;1.42;;;;;;;;;;4896785;29;20214;-86
2021/08/11 06:11:31;;;;;;;1.63;1.50;;;;;;;;;;4898052;29;20205;-85
2021/08/11 06:13:58;;;;;;;1.52;1.42;;;;;;;;;;4900636;29;20606;-85
2021/08/11 06:16:26;;;;;;;1.52;1.42;;;;;;;;;;4900475;29;20698;-86
2021/08/11 06:18:56;;;;;;;2.22;2.03;;;;;;;;;;4899932;29;20242;-86
2021/08/11 06:21:26;;;;;;;2.00;1.90;;;;;;;;;;4900583;29;20211;-86
2021/08/11 06:23:54;;;;;;;2.00;1.38;;;;;;;;;;4900454;29;20629;-85
2021/08/11 06:26:22;;;;;;;3.03;2.28;;;;;;;;;;4900428;29;20570;-85
2021/08/11 06:28:50;;;;;;;1.83;1.73;;;;;;;;;;4900427;29;20203;-85
2021/08/11 06:31:20;;;;;;;2.53;2.33;;;;;;;;;;4900305;29;20342;-85
2021/08/11 06:33:48;;;;;;;2.08;1.98;;;;;;;;;;4903252;29;20723;-85
2021/08/11 06:36:15;;;;;;;2.15;2.00;;;;;;;;;;4918905;29;20669;-85
2021/08/11 06:38:44;;;;;;;2.42;2.22;;;;;;;;;;4919208;29;20278;-85
2021/08/11 06:41:15;;;;;;;2.58;2.38;;;;;;;;;;4919109;29;20206;-85
2021/08/11 06:43:44;;;;;;;1.20;1.20;;;;;;;;;;4919122;29;20297;-85
2021/08/11 06:46:12;;;;;;;1.95;1.85;;;;;;;;;;4919089;29;20206;-85
2021/08/11 06:48:40;;;;;;;1.63;1.52;;;;;;;;;;4918952;29;20207;-85
2021/08/11 06:51:09;;;;;;;2.70;2.50;;;;;;;;;;4918757;29;20210;-85
2021/08/11 06:53:37;;;;;;;2.33;2.13;;;;;;;;;;4918789;29;20320;-85
2021/08/11 06:56:07;;;;;;;2.88;2.55;;;;;;;;;;4918725;29;20199;-86
2021/08/11 06:58:37;;;;;;;3.65;3.35;;;;;;;;;;4918497;29;20334;-85
2021/08/11 07:01:04;;;;;;;2.78;2.40;;;;;;;;;;4918936;29;20584;-85
2021/08/11 07:03:32;;;;;;;2.50;2.33;;;;;;;;;;4918650;29;20611;-85
2021/08/11 07:05:59;;;;;;;2.17;2.08;;;;;;;;;;4918453;29;20202;-85
2021/08/11 07:08:27;;;;;;;3.13;2.88;;;;;;;;;;4918445;29;20207;-85
2021/08/11 07:10:54;;;;;;;4.00;3.70;;;;;;;;;;4917780;29;20202;-85
2021/08/11 07:13:23;;;;;;;4.57;4.18;;;;;;;;;;4918535;29;20553;-85
2021/08/11 07:15:50;;;;;;;4.30;3.90;;;;;;;;;;4918196;29;20216;-84
2021/08/11 07:18:19;;;;;;;4.45;4.10;;;;;;;;;;4918337;29;20607;-85
2021/08/11 07:20:47;;;;;;;4.63;4.28;;;;;;;;;;4918321;29;20217;-84
2021/08/11 07:23:15;;;;;;;5.65;5.15;;;;;;;;;;4918057;29;20210;-85
2021/08/11 07:25:42;;;;;;;43.85;8.20;;;;;;;;;;4918051;29;20202;-84
2021/08/11 07:28:10;;;;;;;7.80;7.10;;;;;;;;;;4918299;29;20206;-85
2021/08/11 07:30:39;;;;;;;6.35;5.75;;;;;;;;;;4919569;29;20241;-85
2021/08/11 07:33:08;;;;;;;7.18;6.57;;;;;;;;;;4919547;29;20206;-84
2021/08/11 07:35:36;;;;;;;6.70;6.18;;;;;;;;;;4919064;29;20238;-85
2021/08/11 07:38:05;;;;;;;6.72;6.13;;;;;;;;;;4919819;29;20233;-85
2021/08/11 07:40:33;;;;;;;5.03;4.63;;;;;;;;;;4919219;29;20206;-85
2021/08/11 07:43:01;;;;;;;6.47;5.88;;;;;;;;;;4919364;29;20206;-85
2021/08/11 07:45:30;;;;;;;6.65;6.05;;;;;;;;;;4917623;29;20225;-86
2021/08/11 07:47:59;;;;;;;7.40;6.70;;;;;;;;;;4917963;29;20293;-85
2021/08/11 07:50:29;;;;;;;6.82;6.15;;;;;;;;;;4917573;29;20213;-84
2021/08/11 07:52:56;;;;;;;5.07;4.68;;;;;;;;;;4917527;29;20670;-84
2021/08/11 07:55:24;;;;;;;6.60;6.00;;;;;;;;;;4917670;29;20238;-85
2021/08/11 07:57:53;;;;;;;5.10;4.70;;;;;;;;;;4917614;29;20221;-85
2021/08/11 08:00:22;;;;;;;7.70;6.90;;;;;;;;;;4919078;29;20207;-85
2021/08/11 08:02:49;;;;;;;5.47;5.03;;;;;;;;;;4919409;29;20206;-85
2021/08/11 08:05:18;;;;;;;6.90;6.40;;;;;;;;;;4918741;29;20717;-84
2021/08/11 08:07:46;;;;;;;5.97;5.47;;;;;;;;;;4918959;29;20210;-85
2021/08/11 08:10:13;;;;;;;6.00;5.55;;;;;;;;;;4918508;29;20214;-85
2021/08/11 08:12:43;;;;;;;7.20;6.50;;;;;;;;;;4919065;29;20215;-85
2021/08/11 08:15:12;;;;;;;5.32;4.93;;;;;;;;;;4918471;29;20717;-85
2021/08/11 08:17:39;;;;;;;5.20;4.80;;;;;;;;;;4917846;29;20238;-86
2021/08/11 08:20:08;;;;;;;7.05;6.35;;;;;;;;;;4917914;29;20581;-85
2021/08/11 08:22:37;;;;;;;6.32;5.82;;;;;;;;;;4917628;29;20217;-85
2021/08/11 08:25:06;;;;;;;6.32;5.82;;;;;;;;;;4917877;29;20739;-85
2021/08/11 08:27:33;;;;;;;6.28;5.78;;;;;;;;;;4917618;29;20217;-84
2021/08/11 08:30:01;;;;;;;4.55;4.25;;;;;;;;;;4917247;29;20213;-85
2021/08/11 08:32:31;;;;;;;4.97;4.57;;;;;;;;;;4916925;29;20206;-85
2021/08/11 08:34:59;;;;;;;5.78;5.30;;;;;;;;;;4916192;29;20249;-85
2021/08/11 08:37:30;;;;;;;5.72;5.22;;;;;;;;;;4916368;29;20213;-85
2021/08/11 08:40:02;;;;;;;5.80;5.40;;;;;;;;;;4916746;29;20230;-84
2021/08/11 08:42:30;;;;;;;6.43;5.88;;;;;;;;;;4916673;29;20198;-84
2021/08/11 08:44:57;;;;;;;6.38;5.78;;;;;;;;;;4916363;29;20735;-84
2021/08/11 08:47:25;;;;;;;6.15;5.55;;;;;;;;;;4916389;29;20592;-85
2021/08/11 08:49:53;;;;;;;6.45;5.95;;;;;;;;;;4916561;29;20197;-85
2021/08/11 08:52:21;;;;;;;6.80;6.28;;;;;;;;;;4916456;29;20224;-85
2021/08/11 08:54:49;;;;;;;5.40;5.00;;;;;;;;;;4916410;29;20214;-85
2021/08/11 08:57:18;;;;;;;5.78;5.28;;;;;;;;;;4916007;29;20579;-84
2021/08/11 08:59:46;;;;;;;6.00;5.50;;;;;;;;;;4916775;29;20234;-84
2021/08/11 09:02:14;;;;;;;5.50;5.10;;;;;;;;;;4917351;29;20681;-86
2021/08/11 09:04:42;;;;;;;6.55;6.05;;;;;;;;;;4916968;29;20218;-85
2021/08/11 09:07:14;;;;;;;5.32;4.95;;;;;;;;;;4917569;29;20212;-86
2021/08/11 09:09:41;;;;;;;4.65;4.30;;;;;;;;;;4917950;29;20202;-85
2021/08/11 09:12:15;;;;;;;5.57;5.07;;;;;;;;;;4917408;29;20202;-86
2021/08/11 09:14:46;;;;;;;4.72;4.32;;;;;;;;;;4916770;29;20226;-84
2021/08/11 09:17:15;;;;;;;5.00;4.53;;;;;;;;;;4916788;29;20206;-85
2021/08/11 09:19:45;;;;;;;4.35;3.95;;;;;;;;;;4915704;29;20232;-85
2021/08/11 09:22:15;;;;;;;4.90;4.60;;;;;;;;;;4917414;29;20269;-86
2021/08/11 09:24:44;;;;;;;4.95;4.18;;;;;;;;;;4917412;29;20230;-85
2021/08/11 09:27:24;;;;;;;4.32;4.03;;;;;;;;;;4916883;29;20202;-85
2021/08/11 09:30:15;;;;;;;4.07;3.78;;;;;;;;;;4917528;29;20234;-85
2021/08/11 09:33:04;;;;;;;4.28;3.97;;;;;;;;;;4913012;29;20206;-85
2021/08/11 09:35:33;;;;;;;4.40;4.10;;;;;;;;;;4918828;29;20305;-85
2021/08/11 09:38:05;;;;;;;4.00;3.70;;;;;;;;;;4919667;29;20215;-85
2021/08/11 09:40:33;;;;;;;4.07;3.78;;;;;;;;;;4918258;29;20262;-84
2021/08/11 09:43:04;;;;;;;3.92;3.63;;;;;;;;;;4918208;29;20214;-85
2021/08/11 09:45:46;;;;;;;4.35;4.05;;;;;;;;;;4918121;29;20234;-85
2021/08/11 09:48:14;;;;;;;4.65;4.35;;;;;;;;;;4920859;29;20649;-85
2021/08/11 09:50:46;;;;;;;3.90;3.60;;;;;;;;;;4920419;29;20209;-85
2021/08/11 09:53:16;;;;;;;4.03;3.72;;;;;;;;;;4920553;29;20194;-84
2021/08/11 09:56:06;;;;;;;3.42;3.22;;;;;;;;;;4920693;29;20206;-85
2021/08/11 09:58:38;;;;;;;5.93;4.45;;;;;;;;;;4920667;29;20240;-85
2021/08/11 10:01:24;;;;;;;3.40;3.20;;;;;;;;;;4920750;29;20644;-84
2021/08/11 10:03:56;;;;;;;4.25;3.85;;;;;;;;;;4916282;29;20677;-83
2021/08/11 10:06:28;;;;;;;3.58;3.35;;;;;;;;;;4901486;29;20249;-86
2021/08/11 10:08:56;;;;;;;4.25;3.85;;;;;;;;;;4902046;29;20678;-86
2021/08/11 10:11:40;;;;;;;5.00;4.60;;;;;;;;;;4939104;29;20637;-86
2021/08/11 10:14:11;;;;;;;4.13;3.83;;;;;;;;;;4939294;29;20751;-86
2021/08/11 10:16:41;;;;;;;3.80;3.50;;;;;;;;;;4939573;29;20193;-85
2021/08/11 10:19:12;;;;;;;4.53;3.97;;;;;;;;;;4938650;29;20668;-86
2021/08/11 10:21:45;;;;;;;3.83;3.63;;;;;;;;;;4939243;29;20198;-86
2021/08/11 10:24:13;;;;;;;4.05;3.75;;;;;;;;;;4939701;29;20273;-85
2021/08/11 10:26:42;;;;;;;4.03;3.72;;;;;;;;;;4939247;29;20561;-85
2021/08/11 10:29:10;;;;;;;3.33;3.13;;;;;;;;;;4938888;29;20209;-85
2021/08/11 10:31:38;;;;;;;3.03;2.83;;;;;;;;;;4937097;29;20210;-85
2021/08/11 10:34:07;;;;;;;3.40;3.15;;;;;;;;;;4920037;29;20241;-85
2021/08/11 10:36:34;;;;;;;3.08;2.88;;;;;;;;;;4919852;29;20696;-85
2021/08/11 10:39:03;;;;;;;2.80;2.60;;;;;;;;;;4920181;29;20195;-85
2021/08/11 10:41:31;;;;;;;2.30;2.10;;;;;;;;;;4919543;29;20241;-85
2021/08/11 10:44:00;;;;;;;2.75;2.55;;;;;;;;;;4920326;29;20230;-85
2021/08/11 10:46:35;;;;;;;2.47;2.25;;;;;;;;;;4920920;29;20187;-85
2021/08/11 10:49:04;;;;;;;2.83;2.63;;;;;;;;;;4920688;29;20289;-84
2021/08/11 10:51:41;;;;;;;2.20;2.10;;;;;;;;;;4920631;29;20198;-84
2021/08/11 10:54:09;;;;;;;3.33;2.85;;;;;;;;;;4920683;29;20236;-84
2021/08/11 10:56:48;;;;;;;2.25;2.15;;;;;;;;;;4920750;29;20198;-84
2021/08/11 10:59:46;;;;;;;2.25;2.15;;;;;;;;;;4920219;29;20194;-84
2021/08/11 11:02:48;;;;;;;2.40;2.30;;;;;;;;;;4919952;29;20198;-84
2021/08/11 11:06:06;;;;;;;2.05;1.95;;;;;;;;;;4921374;29;20226;-84
2021/08/11 11:08:37;;;;;;;2.15;2.05;;;;;;;;;;4861827;29;20199;-84
2021/08/11 11:11:38;;;;;;;2.15;2.05;;;;;;;;;;4916221;29;20214;-84
2021/08/11 11:14:08;;;;;;;2.25;2.08;;;;;;;;;;4920720;29;20232;-84
2021/08/11 11:17:12;;;;;;;2.45;2.25;;;;;;;;;;4920907;29;20217;-85
2021/08/11 11:20:26;;;;;;;1.73;1.63;;;;;;;;;;4920570;29;20258;-84
2021/08/11 11:22:59;;;;;;;2.20;2.10;;;;;;;;;;4886611;29;20234;-85
2021/08/11 11:26:11;;;;;;;2.17;2.08;;;;;;;;;;4920383;29;20230;-85
2021/08/11 11:29:01;;;;;;;1.90;1.80;;;;;;;;;;4906490;29;20210;-84
2021/08/11 11:31:38;;;;;;;2.30;2.20;;;;;;;;;;4919962;29;20202;-84
2021/08/11 11:34:34;;;;;;;1.90;1.80;;;;;;;;;;4920160;29;20269;-85
2021/08/11 11:37:24;;;;;;;2.22;2.13;;;;;;;;;;4918335;29;20235;-84
2021/08/11 11:40:13;;;;;;;2.42;2.22;;;;;;;;;;4920182;29;20206;-84
2021/08/11 11:42:44;;;;;;;2.28;2.17;;;;;;;;;;4920200;29;20289;-84
2021/08/11 11:45:14;;;;;;;2.08;1.98;;;;;;;;;;4919930;29;20615;-84
2021/08/11 11:48:05;;;;;;;2.00;1.90;;;;;;;;;;4920136;29;20239;-84
2021/08/11 11:50:41;;;;;;;2.40;2.25;;;;;;;;;;4919625;29;20661;-85
2021/08/11 11:53:10;;;;;;;2.53;2.33;;;;;;;;;;4919355;29;20301;-84
2021/08/11 11:55:40;;;;;;;1.92;1.83;;;;;;;;;;4920421;29;20583;-85
2021/08/11 11:58:12;;;;;;;2.90;2.70;;;;;;;;;;4919797;29;20230;-85
2021/08/11 12:00:41;;;;;;;2.50;2.40;;;;;;;;;;4919568;29;20309;-84
2021/08/11 12:03:08;;;;;;;2.47;2.38;;;;;;;;;;4919876;29;20191;-85
2021/08/11 12:05:47;;;;;;;1.85;1.75;;;;;;;;;;4919202;29;20301;-84
2021/08/11 12:08:17;;;;;;;2.20;2.10;;;;;;;;;;4919246;29;20218;-84
2021/08/11 12:10:45;;;;;;;2.50;2.30;;;;;;;;;;4918932;29;20183;-84
2021/08/11 12:13:14;;;;;;;2.85;2.65;;;;;;;;;;4918216;29;20195;-84
2021/08/11 12:15:43;;;;;;;2.05;1.95;;;;;;;;;;4918810;29;20190;-84
2021/08/11 12:18:19;;;;;;;2.95;2.75;;;;;;;;;;4918916;29;20291;-84
2021/08/11 12:20:48;;;;;;;2.45;2.20;;;;;;;;;;4918776;29;20256;-84
2021/08/11 12:23:22;;;;;;;2.50;2.30;;;;;;;;;;4919055;29;20186;-84
2021/08/11 12:25:53;;;;;;;2.03;1.85;;;;;;;;;;4919376;29;20289;-84
2021/08/11 12:28:23;;;;;;;1.60;1.50;;;;;;;;;;4918565;29;20195;-84
2021/08/11 12:30:57;;;;;;;1.80;1.70;;;;;;;;;;4919026;29;20194;-83
2021/08/11 12:33:26;;;;;;;1.98;1.63;;;;;;;;;;4919133;29;20284;-84
2021/08/11 12:35:55;;;;;;;2.67;2.13;;;;;;;;;;4918435;29;20202;-84
2021/08/11 12:38:31;;;;;;;2.50;2.40;;;;;;;;;;4918553;29;20191;-84
2021/08/11 12:40:59;;;;;;;2.45;2.30;;;;;;;;;;4918524;29;20216;-84
2021/08/11 12:43:40;;;;;;;1.95;1.85;;;;;;;;;;4918389;29;20282;-84
2021/08/11 12:46:09;;;;;;;1.88;1.77;;;;;;;;;;4918048;29;20229;-84
2021/08/11 12:48:36;;;;;;;2.28;2.17;;;;;;;;;;4919052;29;20190;-83
2021/08/11 12:51:06;;;;;;;2.67;2.47;;;;;;;;;;4918979;29;20186;-84
2021/08/11 12:53:38;;;;;;;2.63;2.42;;;;;;;;;;4918812;29;20236;-84
2021/08/11 12:56:13;;;;;;;2.42;2.25;;;;;;;;;;4903812;29;20202;-84
2021/08/11 12:59:05;;;;;;;2.25;2.15;;;;;;;;;;4899934;29;20270;-84
2021/08/11 13:01:39;;;;;;;9.48;8.77;;;;;;;;;;4892151;29;20258;-84
2021/08/11 13:04:09;;;;;;;5.53;5.13;;;;;;;;;;4917953;29;20665;-84
2021/08/11 13:06:42;;;;;;;3.58;3.30;;;;;;;;;;4918746;29;20246;-84
2021/08/11 13:09:21;;;;;;;3.30;2.97;;;;;;;;;;4917758;29;20205;-83
2021/08/11 13:11:58;;;;;;;2.10;2.00;;;;;;;;;;4918887;29;20202;-82
2021/08/11 13:14:52;;;;;;;1.65;1.55;;;;;;;;;;4918435;29;20230;-83
2021/08/11 13:17:26;;;;;;;1.70;1.60;;;;;;;;;;4918642;29;20265;-83
2021/08/11 13:20:17;;;;;;;1.80;1.70;;;;;;;;;;4915307;29;20198;-84
2021/08/11 13:22:47;;;;;;;2.05;1.67;;;;;;;;;;4899242;29;20298;-84
2021/08/11 13:25:16;;;;;;;1.92;1.83;;;;;;;;;;4908400;29;20226;-83
2021/08/11 13:27:45;;;;;;;2.10;2.00;;;;;;;;;;4933885;29;20570;-83
2021/08/11 13:30:14;;;;;;;2.03;1.92;;;;;;;;;;4926301;29;20263;-84
2021/08/11 13:32:42;;;;;;;2.30;2.20;;;;;;;;;;4927376;29;20282;-83
2021/08/11 13:35:12;;;;;;;2.28;2.13;;;;;;;;;;4928349;29;20265;-84
2021/08/11 13:37:40;;;;;;;2.00;1.90;;;;;;;;;;4924094;29;20572;-84
2021/08/11 13:40:11;;;;;;;2.40;2.25;;;;;;;;;;4911487;29;20645;-84
2021/08/11 13:42:38;;;;;;;3.25;3.00;;;;;;;;;;4936659;29;20834;-85
2021/08/11 13:45:07;;;;;;;2.22;2.10;;;;;;;;;;4937576;29;20224;-84
2021/08/11 13:47:37;;;;;;;2.30;2.20;;;;;;;;;;4910288;29;20694;-83
2021/08/11 13:50:06;;;;;;;2.25;2.13;;;;;;;;;;4917879;29;20190;-84
2021/08/11 13:52:34;;;;;;;2.40;1.83;;;;;;;;;;4916591;29;20206;-84
2021/08/11 13:55:01;;;;;;;2.17;2.08;;;;;;;;;;4918323;29;20226;-84
2021/08/11 13:57:29;;;;;;;2.00;1.90;;;;;;;;;;4917735;29;20279;-84
2021/08/11 13:59:57;;;;;;;1.65;1.55;;;;;;;;;;4918390;29;20562;-84
2021/08/11 14:02:25;;;;;;;1.70;1.60;;;;;;;;;;4925421;29;20209;-84
2021/08/11 14:04:54;;;;;;;2.70;2.50;;;;;;;;;;4935973;29;20244;-84
2021/08/11 14:07:22;;;;;;;2.90;2.65;;;;;;;;;;4935867;29;20200;-84
2021/08/11 14:09:49;;;;;;;2.38;2.25;;;;;;;;;;4937758;29;20190;-85
2021/08/11 14:12:17;;;;;;;2.38;2.28;;;;;;;;;;4931813;29;20197;-84
2021/08/11 14:14:44;;;;;;;2.15;2.05;;;;;;;;;;4936532;29;20226;-84
2021/08/11 14:17:12;;;;;;;2.20;2.10;;;;;;;;;;4919511;29;20669;-84
2021/08/11 14:19:40;;;;;;;2.10;2.00;;;;;;;;;;4917499;29;20226;-85
2021/08/11 14:22:10;;;;;;;2.20;2.10;;;;;;;;;;4924259;29;20210;-84
2021/08/11 14:24:38;;;;;;;2.20;2.00;;;;;;;;;;4928785;29;20245;-85
2021/08/11 14:27:06;;;;;;;1.92;1.83;;;;;;;;;;4918062;29;20376;-84
2021/08/11 14:29:33;;;;;;;1.80;1.70;;;;;;;;;;4918272;29;20194;-83
2021/08/11 14:32:01;;;;;;;1.80;1.70;;;;;;;;;;4918419;29;20194;-83
2021/08/11 14:34:28;;;;;;;2.05;1.95;;;;;;;;;;4921575;29;20234;-83
2021/08/11 14:36:56;;;;;;;2.25;2.05;;;;;;;;;;4919697;29;20206;-88
2021/08/11 14:39:25;;;;;;;2.55;2.35;;;;;;;;;;4921237;29;20845;-83
2021/08/11 14:41:53;;;;;;;2.45;2.25;;;;;;;;;;4919831;29;20206;-83
2021/08/11 14:44:22;;;;;;;2.40;2.30;;;;;;;;;;4919868;29;20237;-83
2021/08/11 14:46:50;;;;;;;2.75;2.55;;;;;;;;;;4918309;29;20563;-83
2021/08/11 14:49:18;;;;;;;3.58;2.22;;;;;;;;;;4918343;29;20191;-84
2021/08/11 14:51:45;;;;;;;2.15;2.05;;;;;;;;;;4919064;29;20191;-84
2021/08/11 14:54:13;;;;;;;2.60;2.40;;;;;;;;;;4918712;29;20235;-84
2021/08/11 14:56:43;;;;;;;1.73;1.63;;;;;;;;;;4919198;29;20187;-84
2021/08/11 14:59:11;;;;;;;1.80;1.70;;;;;;;;;;4909079;29;20201;-84
2021/08/11 15:01:38;;;;;;;2.22;2.05;;;;;;;;;;4919348;29;20194;-84
2021/08/11 15:04:06;;;;;;;2.25;2.15;;;;;;;;;;4918829;29;20237;-83